createdAt,value
2022-11-02T00:00:34.959Z,17.20
2022-11-02T00:02:36.554Z,8.15
2022-11-02T00:04:38.144Z,6.65
2022-11-02T00:06:41.296Z,8.15
2022-11-02T00:08:42.780Z,6.72
2022-11-02T00:10:44.427Z,11.07
2022-11-02T00:12:46.384Z,16.60
2022-11-02T00:14:48.044Z,6.88
2022-11-02T00:16:49.733Z,12.52
2022-11-02T00:18:53.473Z,11.20
2022-11-02T00:20:55.431Z,10.85
2022-11-02T00:22:58.387Z,10.75
2022-11-02T00:25:04.201Z,8.98
2022-11-02T00:27:05.782Z,11.88
2022-11-02T00:29:08.335Z,8.02
2022-11-02T00:31:09.785Z,10.48
2022-11-02T00:33:11.906Z,13.02
2022-11-02T00:35:13.401Z,13.90
2022-11-02T00:37:15.557Z,19.27
2022-11-02T00:39:16.931Z,8.95
2022-11-02T00:41:19.766Z,7.07
2022-11-02T00:43:21.167Z,9.20
2022-11-02T00:45:23.076Z,11.07
2022-11-02T00:47:24.565Z,10.05
2022-11-02T00:49:25.992Z,16.00
2022-11-02T00:51:27.392Z,10.20
2022-11-02T00:53:28.814Z,11.05
2022-11-02T00:55:30.263Z,11.00
2022-11-02T00:57:31.656Z,13.82
2022-11-02T00:59:33.299Z,19.38
2022-11-02T01:01:34.815Z,12.05
2022-11-02T01:03:36.350Z,14.55
2022-11-02T01:05:37.935Z,12.18
2022-11-02T01:07:39.476Z,9.77
2022-11-02T01:09:40.857Z,11.02
2022-11-02T01:11:43.196Z,14.30
2022-11-02T01:13:44.978Z,13.30
2022-11-02T01:15:46.392Z,21.40
2022-11-02T01:17:47.812Z,17.35
2022-11-02T01:19:50.200Z,17.52
2022-11-02T01:21:51.732Z,12.90
2022-11-02T01:23:53.180Z,12.18
2022-11-02T01:25:54.564Z,19.10
2022-11-02T01:27:56.139Z,12.40
2022-11-02T01:29:57.801Z,15.68
2022-11-02T01:31:59.400Z,17.02
2022-11-02T01:34:00.813Z,5.30
2022-11-02T01:36:03.040Z,16.25
2022-11-02T01:38:04.839Z,20.42
2022-11-02T01:40:06.573Z,19.45
2022-11-02T01:42:17.631Z,12.82
2022-11-02T01:44:24.964Z,14.15
2022-11-02T01:46:32.165Z,14.45
2022-11-02T01:48:37.683Z,13.73
2022-11-02T01:50:39.496Z,14.38
2022-11-02T01:52:41.517Z,18.35
2022-11-02T01:54:51.071Z,18.10
2022-11-02T01:56:55.336Z,15.23
2022-11-02T02:00:58.212Z,11.57
2022-11-02T02:03:06.316Z,14.48
2022-11-02T02:05:09.446Z,15.35
2022-11-02T02:07:12.317Z,14.15
2022-11-02T02:09:14.860Z,14.40
2022-11-02T02:11:28.426Z,15.85
2022-11-02T02:13:30.051Z,13.98
2022-11-02T02:15:39.129Z,25.67
2022-11-02T02:17:43.241Z,25.10
2022-11-02T02:19:50.154Z,21.63
2022-11-02T02:22:09.978Z,13.23
2022-11-02T02:24:22.529Z,13.68
2022-11-02T02:26:47.743Z,27.95
2022-11-02T02:29:22.877Z,7.88
2022-11-02T02:31:33.079Z,18.02
2022-11-02T02:33:40.010Z,20.50
2022-11-02T02:35:45.668Z,19.25
2022-11-02T02:38:00.920Z,14.52
2022-11-02T02:40:07.962Z,14.15
2022-11-02T02:42:14.313Z,12.57
2022-11-02T02:44:21.096Z,19.80
2022-11-02T02:46:40.455Z,13.32
2022-11-02T02:48:47.708Z,19.30
2022-11-02T02:50:52.470Z,21.67
2022-11-02T02:52:56.765Z,16.08
2022-11-02T02:55:00.249Z,13.65
2022-11-02T02:57:06.755Z,11.25
2022-11-02T02:59:13.129Z,28.10
2022-11-02T03:01:15.751Z,13.67
2022-11-02T03:03:18.531Z,13.70
2022-11-02T03:05:24.102Z,12.73
2022-11-02T03:07:31.026Z,14.02
2022-11-02T03:09:45.409Z,19.35
2022-11-02T03:11:51.517Z,19.45
2022-11-02T03:14:04.929Z,13.45
2022-11-02T03:16:11.807Z,22.20
2022-11-02T03:18:25.244Z,14.85
2022-11-02T03:20:33.943Z,17.55
2022-11-02T03:22:44.114Z,19.48
2022-11-02T03:25:00.458Z,15.07
2022-11-02T03:27:15.774Z,12.18
2022-11-02T03:29:24.172Z,19.85
2022-11-02T03:31:31.450Z,22.27
2022-11-02T03:33:35.748Z,12.68
2022-11-02T03:35:41.308Z,18.15
2022-11-02T03:37:46.832Z,16.13
2022-11-02T03:39:50.196Z,9.00
2022-11-02T03:41:52.895Z,13.02
2022-11-02T03:43:58.755Z,19.63
2022-11-02T03:46:02.142Z,16.88
2022-11-02T03:48:06.773Z,16.45
2022-11-02T03:50:09.319Z,18.55
2022-11-02T03:52:14.818Z,17.52
2022-11-02T03:54:27.284Z,19.45
2022-11-02T03:56:34.092Z,16.80
2022-11-02T03:58:35.848Z,21.92
2022-11-02T04:00:38.405Z,15.65
2022-11-02T04:02:41.222Z,14.18
2022-11-02T04:04:49.916Z,17.30
2022-11-02T04:06:51.799Z,16.58
2022-11-02T04:08:53.321Z,23.95
2022-11-02T04:11:13.595Z,23.05
2022-11-02T04:13:33.564Z,13.05
2022-11-02T04:15:34.981Z,11.43
2022-11-02T04:17:55.075Z,19.08
2022-11-02T04:19:56.980Z,19.38
2022-11-02T04:22:17.060Z,10.50
2022-11-02T04:24:36.908Z,10.43
2022-11-02T04:26:38.563Z,12.02
2022-11-02T04:28:40.183Z,16.08
2022-11-02T04:30:41.624Z,10.85
2022-11-02T04:33:02.717Z,15.27
2022-11-02T04:35:04.390Z,13.65
2022-11-02T04:37:25.858Z,17.58
2022-11-02T04:39:27.388Z,12.13
2022-11-02T04:41:44.380Z,13.63
2022-11-02T04:43:45.809Z,28.33
2022-11-02T04:45:47.417Z,17.30
2022-11-02T04:47:49.098Z,16.77
2022-11-02T04:49:50.561Z,12.98
2022-11-02T04:51:51.965Z,17.38
2022-11-02T04:53:54.161Z,16.70
2022-11-02T04:55:55.559Z,12.38
2022-11-02T04:57:57.253Z,12.93
2022-11-02T04:59:58.729Z,12.48
2022-11-02T05:02:00.249Z,15.52
2022-11-02T05:04:01.791Z,15.52
2022-11-02T05:06:03.469Z,18.25
2022-11-02T05:08:05.307Z,14.00
2022-11-02T05:10:07.177Z,13.85
2022-11-02T05:12:08.589Z,11.07
2022-11-02T05:14:10.276Z,13.57
2022-11-02T05:16:13.005Z,11.10
2022-11-02T05:18:18.629Z,11.70
2022-11-02T05:20:20.596Z,7.88
2022-11-02T05:22:22.468Z,12.65
2022-11-02T05:24:23.856Z,15.32
2022-11-02T05:26:25.348Z,17.98
2022-11-02T05:28:27.540Z,11.85
2022-11-02T05:30:30.953Z,12.15
2022-11-02T05:32:42.662Z,16.80
2022-11-02T05:34:54.061Z,17.13
2022-11-02T05:37:08.303Z,21.25
2022-11-02T05:39:18.724Z,8.60
2022-11-02T05:41:30.125Z,9.55
2022-11-02T05:43:42.132Z,13.30
2022-11-02T05:46:06.185Z,11.98
2022-11-02T05:48:16.981Z,10.52
2022-11-02T05:50:25.552Z,9.93
2022-11-02T05:52:33.902Z,15.02
2022-11-02T05:54:44.521Z,14.82
2022-11-02T05:56:55.366Z,12.40
2022-11-02T05:59:05.870Z,17.38
2022-11-02T06:01:10.508Z,14.10
2022-11-02T06:03:12.029Z,11.10
2022-11-02T06:05:13.942Z,11.77
2022-11-02T06:07:15.481Z,14.73
2022-11-02T06:09:16.938Z,11.45
2022-11-02T06:11:18.390Z,13.50
2022-11-02T06:13:20.052Z,10.90
2022-11-02T06:15:21.629Z,10.80
2022-11-02T06:17:23.062Z,9.60
2022-11-02T06:19:24.489Z,5.78
2022-11-02T06:21:26.005Z,9.45
2022-11-02T06:23:27.973Z,8.20
2022-11-02T06:25:29.403Z,15.25
2022-11-02T06:27:30.839Z,10.20
2022-11-02T06:29:32.351Z,9.70
2022-11-02T06:31:34.081Z,16.35
2022-11-02T06:33:35.521Z,9.88
2022-11-02T06:35:36.983Z,12.65
2022-11-02T06:37:38.767Z,13.55
2022-11-02T06:39:40.577Z,7.97
2022-11-02T06:41:42.033Z,7.95
2022-11-02T06:43:43.411Z,17.08
2022-11-02T06:45:44.927Z,9.30
2022-11-02T06:47:48.420Z,7.28
2022-11-02T06:49:49.887Z,6.78
2022-11-02T06:51:51.786Z,8.93
2022-11-02T06:53:53.276Z,15.73
2022-11-02T06:55:55.380Z,16.10
2022-11-02T06:57:56.899Z,17.13
2022-11-02T07:00:04.180Z,9.60
2022-11-02T07:02:06.322Z,15.65
2022-11-02T07:04:07.873Z,14.45
2022-11-02T07:06:13.898Z,18.45
2022-11-02T07:08:15.831Z,14.40
2022-11-02T07:10:17.365Z,9.20
2022-11-02T07:12:22.882Z,23.45
2022-11-02T07:14:25.010Z,7.78
2022-11-02T07:16:26.542Z,11.43
2022-11-02T07:18:28.046Z,20.05
2022-11-02T07:20:30.550Z,28.05
2022-11-02T07:22:32.379Z,21.48
2022-11-02T07:24:34.215Z,33.63
2022-11-02T07:26:35.927Z,23.20
2022-11-02T07:28:38.359Z,19.38
2022-11-02T07:30:39.852Z,18.88
2022-11-02T07:32:42.396Z,27.35
2022-11-02T07:34:43.905Z,22.08
2022-11-02T07:36:46.119Z,27.92
2022-11-02T07:38:47.595Z,22.75
2022-11-02T07:40:50.769Z,36.47
2022-11-02T07:42:54.004Z,27.85
2022-11-02T07:44:55.723Z,31.80
2022-11-02T07:46:57.217Z,32.22
2022-11-02T07:48:58.728Z,17.00
2022-11-02T07:51:00.223Z,30.00
2022-11-02T07:53:01.903Z,22.33
2022-11-02T07:55:03.628Z,26.15
2022-11-02T07:57:05.127Z,16.73
2022-11-02T07:59:06.565Z,27.15
2022-11-02T08:01:08.422Z,45.13
2022-11-02T08:03:11.598Z,18.60
2022-11-02T08:05:13.524Z,22.00
2022-11-02T08:07:15.054Z,33.15
2022-11-02T08:09:16.556Z,23.02
2022-11-02T08:11:43.032Z,28.05
2022-11-02T08:13:44.455Z,23.60
2022-11-02T08:15:53.208Z,27.73
2022-11-02T08:18:01.758Z,22.67
2022-11-02T08:20:03.547Z,31.08
2022-11-02T08:22:05.497Z,28.42
2022-11-02T08:24:07.120Z,20.48
2022-11-02T08:26:08.472Z,22.20
2022-11-02T08:28:14.853Z,22.15
2022-11-02T08:30:16.684Z,19.30
2022-11-02T08:32:18.134Z,20.92
2022-11-02T08:34:19.618Z,26.83
2022-11-02T08:36:22.472Z,28.65
2022-11-02T08:38:30.812Z,18.35
2022-11-02T08:40:42.642Z,22.92
2022-11-02T08:42:49.763Z,24.30
2022-11-02T08:44:58.803Z,23.65
2022-11-02T08:47:10.621Z,20.65
2022-11-02T08:49:20.739Z,18.30
2022-11-02T08:51:25.106Z,21.02
2022-11-02T08:53:31.868Z,15.25
2022-11-02T08:55:39.504Z,15.55
2022-11-02T08:57:57.282Z,16.50
2022-11-02T09:00:05.381Z,23.73
2022-11-02T09:02:11.954Z,29.40
2022-11-02T09:04:18.350Z,22.50
2022-11-02T09:06:21.811Z,23.55
2022-11-02T09:10:27.130Z,20.70
2022-11-02T09:12:28.682Z,33.38
2022-11-02T09:14:30.218Z,13.77
2022-11-02T09:16:31.784Z,17.95
2022-11-02T09:18:33.272Z,19.48
2022-11-02T09:20:34.929Z,29.00
2022-11-02T09:22:36.371Z,17.40
2022-11-02T09:24:37.821Z,19.05
2022-11-02T09:26:39.251Z,10.15
2022-11-02T09:28:41.009Z,16.27
2022-11-02T09:30:42.823Z,14.90
2022-11-02T09:32:44.209Z,13.38
2022-11-02T09:34:47.408Z,20.65
2022-11-02T09:36:48.934Z,27.10
2022-11-02T09:38:50.411Z,23.40
2022-11-02T09:41:00.961Z,14.77
2022-11-02T09:43:08.539Z,19.63
2022-11-02T09:45:15.504Z,27.73
2022-11-02T09:48:02.841Z,24.50
2022-11-02T09:49:39.890Z,28.42
2022-11-02T09:51:49.205Z,25.17
2022-11-02T09:54:03.104Z,24.55
2022-11-02T09:56:05.604Z,15.75
2022-11-02T09:58:17.146Z,18.83
2022-11-02T10:00:18.699Z,25.50
2022-11-02T10:02:28.688Z,26.38
2022-11-02T10:04:32.916Z,21.27
2022-11-02T10:08:48.472Z,21.40
2022-11-02T10:10:56.443Z,23.35
2022-11-02T10:12:57.935Z,26.10
2022-11-02T10:15:02.411Z,24.27
2022-11-02T10:17:22.619Z,19.52
2022-11-02T10:19:26.434Z,16.42
2022-11-02T10:21:36.872Z,19.98
2022-11-02T10:23:40.704Z,25.33
2022-11-02T10:25:42.425Z,21.92
2022-11-02T10:27:47.662Z,18.83
2022-11-02T10:29:59.365Z,20.58
2022-11-02T10:32:01.654Z,19.90
2022-11-02T10:34:14.028Z,23.02
2022-11-02T10:36:19.553Z,21.02
2022-11-02T10:38:39.516Z,28.92
2022-11-02T10:41:02.701Z,25.15
2022-11-02T10:43:21.833Z,26.58
2022-11-02T10:45:41.240Z,24.83
2022-11-02T10:47:45.429Z,26.20
2022-11-02T10:51:49.508Z,21.95
2022-11-02T10:53:51.895Z,20.85
2022-11-02T10:55:58.340Z,21.73
2022-11-02T10:58:00.934Z,17.38
2022-11-02T11:00:22.858Z,16.95
2022-11-02T11:02:24.327Z,27.25
2022-11-02T11:04:26.749Z,27.92
2022-11-02T11:06:29.686Z,19.25
2022-11-02T11:08:35.616Z,18.70
2022-11-02T11:10:38.259Z,24.35
2022-11-02T11:12:43.005Z,20.42
2022-11-02T11:19:48.100Z,27.77
2022-11-02T11:21:52.841Z,23.52
2022-11-02T11:24:11.545Z,16.45
2022-11-02T11:26:26.770Z,24.63
2022-11-02T11:28:29.822Z,30.65
2022-11-02T11:31:00.805Z,26.30
2022-11-02T11:32:54.083Z,21.73
2022-11-02T11:34:55.534Z,28.48
2022-11-02T11:37:08.880Z,20.05
2022-11-02T11:39:31.204Z,27.83
2022-11-02T11:41:41.332Z,28.00
2022-11-02T11:43:52.596Z,25.75
2022-11-02T11:46:06.528Z,23.65
2022-11-02T11:48:11.698Z,19.33
2022-11-02T11:50:25.411Z,25.88
2022-11-02T11:52:32.981Z,23.33
2022-11-02T11:54:36.400Z,32.67
2022-11-02T11:56:39.149Z,26.90
2022-11-02T11:58:50.939Z,22.42
2022-11-02T12:01:11.839Z,30.17
2022-11-02T12:03:15.241Z,22.27
2022-11-02T12:05:22.468Z,23.88
2022-11-02T12:07:43.635Z,25.27
2022-11-02T12:09:45.898Z,23.92
2022-11-02T12:11:51.241Z,19.30
2022-11-02T12:13:59.587Z,28.98
2022-11-02T12:16:04.158Z,23.15
2022-11-02T12:18:24.240Z,29.52
2022-11-02T12:20:25.660Z,19.40
2022-11-02T12:22:30.162Z,22.27
2022-11-02T12:24:39.024Z,23.10
2022-11-02T12:26:46.630Z,21.38
2022-11-02T12:29:11.755Z,29.38
2022-11-02T12:31:33.094Z,31.92
2022-11-02T12:33:40.484Z,24.65
2022-11-02T12:35:41.923Z,29.13
2022-11-02T12:37:58.611Z,24.55
2022-11-02T12:40:06.225Z,18.90
2022-11-02T12:42:15.646Z,30.67
2022-11-02T12:44:35.049Z,20.38
2022-11-02T12:46:48.469Z,23.27
2022-11-02T12:48:50.418Z,25.27
2022-11-02T12:50:55.581Z,27.75
2022-11-02T12:53:03.395Z,28.02
2022-11-02T12:55:07.036Z,25.65
2022-11-02T12:57:12.411Z,29.40
2022-11-02T12:59:21.472Z,31.58
2022-11-02T13:01:37.345Z,22.50
2022-11-02T13:03:43.113Z,27.70
2022-11-02T13:05:50.512Z,24.27
2022-11-02T13:08:10.336Z,29.20
2022-11-02T13:10:15.048Z,25.00
2022-11-02T13:12:18.813Z,27.83
2022-11-02T13:14:20.970Z,21.70
2022-11-02T13:16:26.601Z,23.33
2022-11-02T13:18:32.923Z,37.95
2022-11-02T13:20:40.034Z,23.92
2022-11-02T13:22:43.132Z,35.45
2022-11-02T13:24:47.809Z,22.37
2022-11-02T13:26:57.261Z,29.35
2022-11-02T13:29:02.956Z,30.23
2022-11-02T13:31:11.749Z,27.13
2022-11-02T13:33:19.759Z,19.08
2022-11-02T13:35:30.064Z,21.92
2022-11-02T13:37:34.798Z,30.95
2022-11-02T13:39:38.592Z,26.00
2022-11-02T13:42:01.641Z,26.83
2022-11-02T13:44:06.144Z,26.20
2022-11-02T13:46:14.038Z,19.38
2022-11-02T13:48:15.459Z,24.35
2022-11-02T13:50:18.699Z,19.33
2022-11-02T13:52:40.678Z,18.00
2022-11-02T13:54:46.622Z,18.25
2022-11-02T13:56:53.504Z,27.85
2022-11-02T13:59:00.724Z,14.48
2022-11-02T14:01:03.699Z,21.35
2022-11-02T14:03:15.583Z,22.15
2022-11-02T14:05:31.321Z,22.05
2022-11-02T14:07:34.729Z,20.80
2022-11-02T14:09:38.915Z,35.50
2022-11-02T14:11:40.289Z,36.42
2022-11-02T14:13:54.092Z,28.08
2022-11-02T14:15:55.641Z,25.10
2022-11-02T14:18:02.379Z,33.15
2022-11-02T14:20:24.075Z,24.88
2022-11-02T14:22:25.903Z,27.15
2022-11-02T14:24:33.601Z,18.77
2022-11-02T14:26:53.604Z,21.83
2022-11-02T14:28:55.072Z,25.25
2022-11-02T14:31:16.951Z,25.33
2022-11-02T14:33:24.583Z,26.00
2022-11-02T14:35:49.363Z,31.90
2022-11-02T14:38:04.267Z,29.42
2022-11-02T14:40:24.921Z,34.33
2022-11-02T14:42:38.629Z,25.25
2022-11-02T14:44:40.510Z,22.85
2022-11-02T14:46:55.152Z,29.17
2022-11-02T14:49:07.005Z,36.65
2022-11-02T14:51:25.817Z,26.85
2022-11-02T14:53:41.588Z,28.15
2022-11-02T14:56:00.578Z,36.17
2022-11-02T14:58:20.914Z,30.63
2022-11-02T15:00:55.148Z,29.80
2022-11-02T15:03:02.814Z,20.30
2022-11-02T15:05:17.890Z,30.67
2022-11-02T15:07:33.223Z,26.65
2022-11-02T15:10:02.311Z,30.90
2022-11-02T15:12:28.444Z,29.52
2022-11-02T15:14:39.609Z,32.85
2022-11-02T15:16:50.323Z,30.48
2022-11-02T15:18:57.506Z,36.92
2022-11-02T15:21:26.325Z,30.67
2022-11-02T15:23:31.806Z,42.88
2022-11-02T15:25:36.477Z,39.15
2022-11-02T15:27:39.234Z,27.23
2022-11-02T15:29:44.244Z,32.45
2022-11-02T15:31:49.675Z,34.40
2022-11-02T15:33:53.696Z,38.55
2022-11-02T15:35:55.651Z,40.17
2022-11-02T15:38:19.313Z,32.90
2022-11-02T15:40:26.870Z,38.70
2022-11-02T15:42:28.551Z,33.80
2022-11-02T15:44:45.259Z,24.90
2022-11-02T15:46:46.817Z,28.92
2022-11-02T15:48:57.671Z,27.83
2022-11-02T15:50:59.109Z,27.10
2022-11-02T15:53:35.341Z,25.63
2022-11-02T15:55:48.049Z,22.25
2022-11-02T15:58:08.749Z,31.42
2022-11-02T16:00:15.979Z,28.38
2022-11-02T16:02:22.361Z,26.55
2022-11-02T16:04:24.280Z,30.92
2022-11-02T16:06:30.447Z,30.27
2022-11-02T16:08:33.613Z,24.90
2022-11-02T16:10:35.159Z,26.25
2022-11-02T16:12:36.589Z,24.92
2022-11-02T16:14:38.920Z,22.63
2022-11-02T16:16:47.687Z,24.27
2022-11-02T16:18:57.383Z,16.33
2022-11-02T16:21:01.944Z,25.27
2022-11-02T16:23:04.317Z,25.60
2022-11-02T16:25:15.603Z,20.80
2022-11-02T16:27:17.221Z,21.98
2022-11-02T16:29:23.221Z,27.52
2022-11-02T16:31:30.923Z,20.08
2022-11-02T16:33:42.137Z,24.50
2022-11-02T16:35:43.705Z,22.40
2022-11-02T16:37:45.685Z,20.85
2022-11-02T16:39:47.532Z,24.52
2022-11-02T16:41:49.992Z,25.55
2022-11-02T16:43:51.523Z,22.48
2022-11-02T16:45:58.916Z,27.25
2022-11-02T16:48:00.316Z,26.70
2022-11-02T16:50:02.119Z,25.85
2022-11-02T16:52:17.250Z,26.40
2022-11-02T16:54:25.721Z,33.42
2022-11-02T16:56:30.971Z,41.38
2022-11-02T16:58:32.889Z,26.65
2022-11-02T17:00:34.416Z,35.65
2022-11-02T17:02:39.774Z,33.03
2022-11-02T17:04:42.702Z,35.78
2022-11-02T17:06:45.745Z,25.98
2022-11-02T17:08:51.937Z,33.28
2022-11-02T17:10:55.213Z,37.67
2022-11-02T17:12:57.252Z,27.77
2022-11-02T17:14:59.177Z,35.15
2022-11-02T17:17:08.075Z,36.80
2022-11-02T17:19:29.461Z,28.60
2022-11-02T17:21:31.170Z,33.17
2022-11-02T17:23:34.153Z,29.67
2022-11-02T17:25:36.386Z,25.45
2022-11-02T17:27:42.272Z,26.90
2022-11-02T17:29:44.449Z,38.63
2022-11-02T17:31:45.948Z,39.33
2022-11-02T17:33:47.890Z,32.38
2022-11-02T17:35:50.118Z,39.33
2022-11-02T17:37:53.357Z,43.78
2022-11-02T17:39:55.562Z,44.33
2022-11-02T17:42:16.548Z,40.17
2022-11-02T17:44:18.040Z,43.33
2022-11-02T17:46:19.651Z,37.92
2022-11-02T17:48:21.358Z,44.70
2022-11-02T17:50:23.943Z,36.90
2022-11-02T17:52:25.374Z,41.35
2022-11-02T17:54:31.552Z,35.13
2022-11-02T17:56:41.621Z,27.65
2022-11-02T17:58:55.547Z,37.63
2022-11-02T18:01:00.910Z,30.10
2022-11-02T18:03:09.865Z,48.75
2022-11-02T18:05:22.344Z,40.67
2022-11-02T18:07:25.771Z,35.97
2022-11-02T18:09:35.211Z,50.03
2022-11-02T18:11:43.621Z,43.15
2022-11-02T18:13:49.993Z,28.38
2022-11-02T18:15:57.034Z,38.45
2022-11-02T18:18:07.058Z,41.80
2022-11-02T18:20:17.093Z,31.33
2022-11-02T18:22:29.692Z,35.65
2022-11-02T18:24:41.018Z,28.75
2022-11-02T18:26:46.815Z,39.42
2022-11-02T18:28:48.537Z,39.65
2022-11-02T18:30:50.137Z,44.03
2022-11-02T18:32:51.712Z,39.75
2022-11-02T18:34:53.195Z,44.20
2022-11-02T18:36:54.708Z,35.17
2022-11-02T18:38:56.157Z,30.70
2022-11-02T18:41:02.412Z,40.55
2022-11-02T18:43:04.238Z,41.47
2022-11-02T18:45:06.312Z,33.20
2022-11-02T18:47:08.390Z,38.65
2022-11-02T18:49:10.056Z,35.30
2022-11-02T18:51:11.726Z,36.05
2022-11-02T18:53:13.145Z,36.97
2022-11-02T18:55:14.988Z,25.95
2022-11-02T18:57:16.418Z,38.75
2022-11-02T18:59:17.845Z,38.17
2022-11-02T19:01:20.216Z,39.55
2022-11-02T19:03:21.888Z,45.92
2022-11-02T19:05:43.578Z,54.90
2022-11-02T19:08:04.211Z,44.88
2022-11-02T19:10:06.033Z,38.10
2022-11-02T19:12:09.294Z,35.30
2022-11-02T19:14:10.876Z,32.60
2022-11-02T19:16:12.275Z,29.98
2022-11-02T19:18:13.929Z,39.70
2022-11-02T19:20:15.461Z,36.17
2022-11-02T19:22:20.066Z,30.63
2022-11-02T19:24:21.886Z,30.23
2022-11-02T19:28:30.198Z,40.97
2022-11-02T19:30:31.705Z,40.50
2022-11-02T19:32:33.159Z,45.55
2022-11-02T19:34:36.649Z,38.50
2022-11-02T19:36:38.664Z,26.85
2022-11-02T19:38:40.276Z,39.20
2022-11-02T19:40:41.665Z,30.73
2022-11-02T19:42:43.070Z,25.17
2022-11-02T19:44:44.569Z,31.25
2022-11-02T19:46:46.220Z,36.85
2022-11-02T19:48:48.231Z,47.67
2022-11-02T19:50:49.816Z,32.40
2022-11-02T19:52:51.251Z,41.00
2022-11-02T19:54:52.765Z,35.05
2022-11-02T19:56:54.204Z,36.90
2022-11-02T19:58:56.294Z,34.45
2022-11-02T20:01:06.305Z,41.15
2022-11-02T20:03:07.846Z,20.25
2022-11-02T20:05:11.238Z,28.75
2022-11-02T20:07:12.981Z,29.52
2022-11-02T20:09:15.863Z,27.75
2022-11-02T20:11:22.300Z,31.33
2022-11-02T20:13:24.788Z,33.78
2022-11-02T20:15:26.241Z,29.80
2022-11-02T20:17:38.177Z,30.02
2022-11-02T20:19:48.365Z,31.40
2022-11-02T20:21:50.097Z,30.85
2022-11-02T20:23:51.949Z,35.72
2022-11-02T20:25:53.332Z,33.30
2022-11-02T20:27:55.207Z,30.85
2022-11-02T20:29:57.176Z,34.55
2022-11-02T20:31:58.883Z,27.38
2022-11-02T20:34:00.525Z,34.60
2022-11-02T20:36:02.305Z,43.03
2022-11-02T20:38:04.031Z,37.20
2022-11-02T20:40:06.001Z,41.28
2022-11-02T20:42:09.241Z,27.42
2022-11-02T20:44:10.874Z,43.58
2022-11-02T20:48:37.557Z,41.72
2022-11-02T20:50:39.134Z,38.65
2022-11-02T20:52:40.658Z,39.72
2022-11-02T20:54:42.142Z,31.65
2022-11-02T20:56:43.617Z,37.92
2022-11-02T20:58:47.242Z,39.47
2022-11-02T21:00:57.997Z,38.10
2022-11-02T21:03:08.859Z,31.00
2022-11-02T21:05:19.307Z,34.75
2022-11-02T21:07:26.233Z,34.35
2022-11-02T21:09:32.270Z,43.38
2022-11-02T21:11:56.364Z,36.22
2022-11-02T21:14:01.702Z,29.50
2022-11-02T21:20:28.440Z,33.38
2022-11-02T21:22:37.567Z,42.90
2022-11-02T21:26:45.717Z,39.53
2022-11-02T21:28:51.834Z,34.50
2022-11-02T21:31:13.989Z,43.47
2022-11-02T21:33:16.105Z,41.17
2022-11-02T21:35:17.874Z,44.75
2022-11-02T21:37:23.068Z,51.42
2022-11-02T21:39:25.421Z,54.28
2022-11-02T21:41:29.335Z,40.50
2022-11-02T21:43:31.307Z,68.13
2022-11-02T21:45:37.591Z,63.67
2022-11-02T21:47:39.861Z,47.95
2022-11-02T21:49:43.151Z,51.80
2022-11-02T21:51:44.884Z,58.65
2022-11-02T21:53:46.969Z,32.03
2022-11-02T21:55:55.457Z,31.30
2022-11-02T21:57:57.193Z,18.13
2022-11-02T21:59:58.949Z,44.25
2022-11-02T22:02:00.475Z,11.68
2022-11-02T22:04:02.094Z,14.85
2022-11-02T22:06:03.503Z,10.50
2022-11-02T22:08:23.714Z,11.43
2022-11-02T22:10:25.154Z,16.92
2022-11-02T22:12:45.707Z,15.98
2022-11-02T22:14:47.362Z,17.17
2022-11-02T22:16:48.751Z,23.08
2022-11-02T22:18:51.242Z,25.88
2022-11-02T22:20:55.605Z,23.88
2022-11-02T22:22:57.042Z,28.70
2022-11-02T22:24:58.557Z,30.10
2022-11-02T22:26:59.971Z,31.42
2022-11-02T22:29:01.619Z,24.33
2022-11-02T22:31:07.460Z,28.60
2022-11-02T22:33:11.412Z,29.58
2022-11-02T22:35:12.812Z,26.10
2022-11-02T22:37:33.021Z,25.15
2022-11-02T22:39:34.534Z,29.52
2022-11-02T22:41:37.368Z,35.40
2022-11-02T22:43:39.025Z,27.90
2022-11-02T22:45:40.469Z,33.38
2022-11-02T22:47:42.024Z,34.10
2022-11-02T22:49:43.515Z,32.17
2022-11-02T22:51:46.356Z,32.53
2022-11-02T22:53:48.151Z,30.23
2022-11-02T22:56:16.127Z,35.13
2022-11-02T22:58:17.494Z,27.52
2022-11-02T23:00:19.218Z,39.78
2022-11-02T23:02:20.761Z,37.22
2022-11-02T23:04:22.269Z,31.52
2022-11-02T23:06:24.232Z,38.88
2022-11-02T23:10:49.301Z,32.85
2022-11-02T23:12:53.722Z,32.67
2022-11-02T23:14:55.149Z,36.58
2022-11-02T23:16:56.929Z,34.90
2022-11-02T23:19:25.138Z,33.42
2022-11-02T23:21:28.131Z,42.33
2022-11-02T23:23:48.637Z,28.80
2022-11-02T23:25:56.701Z,27.38
2022-11-02T23:28:16.956Z,30.15
2022-11-02T23:30:37.185Z,24.05
2022-11-02T23:32:38.694Z,29.20
2022-11-02T23:34:40.098Z,24.05
2022-11-02T23:36:41.565Z,26.48
2022-11-02T23:39:03.381Z,30.90
2022-11-02T23:41:04.893Z,32.50
2022-11-02T23:43:08.018Z,24.73
2022-11-02T23:45:10.244Z,34.33
2022-11-02T23:47:11.734Z,32.42
2022-11-02T23:49:15.608Z,17.55
2022-11-02T23:51:35.618Z,17.70
2022-11-02T23:53:55.842Z,30.10
2022-11-02T23:56:16.297Z,22.95
2022-11-02T23:58:17.744Z,18.95
